Flight Track Log - Related Links

Times and Time Zones

All times are in EDT time to prevent confusion due to time zone crossing. See the SWA2339 flight status page for this flight to view local times or setup timezone preferences in your user account.

Time Position Orientation Groundspeed Altitude Reporting Facility
EDT Latitude Longitude Course Direction KTS MPH feet Rate Location/Type
Sun 08:27:53 AM 39.1667 -76.7333 211° Southwest 179 206 2,500  Level Potomac TRACON
Sun 08:28:47 AM 39.1833 -76.8000 288° West 220 253 5,300 3,789 Climbing Potomac TRACON
Sun 08:29:47 AM 39.2000 -76.8833 284° West 253 291 9,700 3,600 Climbing Potomac TRACON
Sun 08:31:52 AM 39.2106 -77.0917 274° West 292 336 16,400 3,114 Climbing Washington Center
Sun 08:32:52 AM 39.1675 -77.1953 242° Southwest 312 359 19,300 3,050 Climbing Washington Center
Sun 08:33:00 AM 39.1248 -77.2123 211° Southwest  Level FlightAware Approximate
Sun 08:33:52 AM 39.0850 -77.2708 215° Southwest 332 382 22,500  Level Washington Center
Sun 08:34:52 AM 39.0500 -77.3958 250° West 347 399 23,000 1,100 Climbing Washington Center
Sun 08:35:52 AM 39.0189 -77.5206 252° West 361 415 24,700 2,000 Climbing Washington Center
Sun 08:36:52 AM 38.9872 -77.6614 254° West 367 422 27,000 1,950 Climbing Washington Center
Sun 08:37:52 AM 38.9558 -77.7886 252° West 378 435 28,600 2,050 Climbing Washington Center
Sun 08:38:52 AM 38.9242 -77.9211 253° West 378 435 31,100 2,500 Climbing Washington Center
Sun 08:39:52 AM 38.8947 -78.0428 253° West 378 435 33,600 2,050 Climbing Washington Center
Sun 08:40:52 AM 38.8628 -78.1722 252° West 373 429 35,200 1,600 Climbing Washington Center
Sun 08:41:52 AM 38.8536 -78.3053 265° West 378 435 36,800 1,350 Climbing Washington Center
Sun 08:42:52 AM 38.8572 -78.4147 272° West 378 435 37,900 1,200 Climbing Washington Center
Sun 08:43:52 AM 38.8514 -78.5797 267° West 385 443 39,200 1,050 Climbing Washington Center
Sun 08:44:52 AM 38.8497 -78.7183 269° West 385 443 40,000 400 Climbing Washington Center
Sun 08:45:52 AM 38.8481 -78.8622 269° West 391 450 40,000  Level Washington Center
Sun 08:46:52 AM 38.8464 -79.0008 269° West 396 456 40,000  Level Washington Center
Sun 08:47:52 AM 38.8444 -79.1419 269° West 401 461 40,000  Level Washington Center
Sun 08:48:52 AM 38.8256 -79.2797 260° West 401 461 40,000  Level Washington Center
Sun 08:49:52 AM 38.8047 -79.4144 259° West 401 461 40,000  Level Washington Center
Sun 08:50:52 AM 38.7844 -79.5225 256° West 401 461 40,000  Level Washington Center
Sun 08:51:52 AM 38.7564 -79.6808 257° West 406 467 40,000  Level Washington Center
Sun 08:52:52 AM 38.7308 -79.8125 256° West 401 461 40,000  Level Washington Center
Sun 08:53:52 AM 38.7047 -79.9628 257° West 395 455 40,000  Level Washington Center
Sun 08:54:52 AM 38.6789 -80.0967 256° West 395 455 40,000  Level Washington Center
Sun 08:55:37 AM 38.6628 -80.1747 255° West 391 450 40,000  Level Indianapolis Center
Sun 08:56:38 AM 38.6378 -80.3097 257° West 390 449 40,000  Level Indianapolis Center
Sun 08:57:39 AM 38.6114 -80.4442 256° West 388 447 40,000  Level Indianapolis Center
Sun 08:58:41 AM 38.5847 -80.5794 256° West 390 449 40,000  Level Indianapolis Center
Sun 08:59:42 AM 38.5592 -80.7131 256° West 388 447 40,000  Level Indianapolis Center
Sun 09:00:43 AM 38.5331 -80.8483 256° West 391 450 40,000  Level Indianapolis Center
Sun 09:01:44 AM 38.5011 -81.0106 256° West 390 449 40,000  Level Indianapolis Center
Sun 09:02:46 AM 38.4739 -81.1467 256° West 393 452 40,000  Level Indianapolis Center
Sun 09:03:47 AM 38.4472 -81.2839 256° West 394 453 40,000  Level Indianapolis Center
Sun 09:04:48 AM 38.4194 -81.4219 256° West 396 456 40,000 -244 Level Indianapolis Center
Sun 09:05:50 AM 38.3925 -81.5592 256° West 394 453 39,500 -683 Descending Indianapolis Center
Sun 09:06:51 AM 38.3650 -81.6939 255° West 390 449 38,600 -934 Descending Indianapolis Center
Sun 09:07:52 AM 38.3356 -81.8258 254° West 387 445 37,600 -927 Descending Indianapolis Center
Sun 09:08:54 AM 38.2989 -81.9539 250° West 384 442 36,700 -919 Descending Indianapolis Center
Sun 09:09:56 AM 38.2633 -82.0806 250° West 379 436 35,700 -1,024 Descending Indianapolis Center
Sun 09:10:57 AM 38.2272 -82.2064 250° West 377 434 34,600 -984 Descending Indianapolis Center
Sun 09:11:58 AM 38.1908 -82.3381 251° West 389 448 33,700 -934 Descending Indianapolis Center
Sun 09:12:59 AM 38.1536 -82.4672 250° West 388 447 32,700 -829 Descending Indianapolis Center
Sun 09:14:01 AM 38.1119 -82.6111 250° West 390 449 32,000 -341 Descending Indianapolis Center
Sun 09:15:02 AM 38.0758 -82.7383 250° West 385 443 32,000  Level Indianapolis Center
Sun 09:16:04 AM 38.0381 -82.8675 250° West 389 448 32,000  Level Indianapolis Center
Sun 09:17:05 AM 38.0003 -82.9953 249° West 387 445 32,000  Level Indianapolis Center
Sun 09:18:07 AM 37.9633 -83.1247 250° West 389 448 32,000  Level Indianapolis Center
Sun 09:19:08 AM 37.9181 -83.2750 249° West 392 451 32,000  Level Indianapolis Center
Sun 09:20:10 AM 37.8806 -83.4039 250° West 392 451 32,000  Level Indianapolis Center
Sun 09:21:11 AM 37.8419 -83.5328 249° West 392 451 32,000 -195 Level Indianapolis Center
Sun 09:22:13 AM 37.8028 -83.6614 249° West 392 451 31,600 -732 Descending Indianapolis Center
Sun 09:23:14 AM 37.7656 -83.7869 249° West 381 438 30,500 -1,082 Descending Indianapolis Center
Sun 09:24:15 AM 37.7314 -83.9031 250° West 357 411 29,400 -1,463 Descending Indianapolis Center
Sun 09:25:17 AM 37.6967 -84.0158 249° West 346 398 27,500 -2,000 Descending Indianapolis Center
Sun 09:26:18 AM 37.6578 -84.1458 249° West 341 392 25,300 -2,000 Descending Indianapolis Center
Sun 09:27:20 AM 37.6233 -84.2572 249° West 343 395 23,400 -1,694 Descending Indianapolis Center
Sun 09:28:22 AM 37.5894 -84.3667 249° West 336 387 21,800 -1,805 Descending Indianapolis Center
Sun 09:29:23 AM 37.5717 -84.4744 258° West 329 379 19,700 -1,951 Descending Indianapolis Center
Sun 09:30:25 AM 37.5911 -84.5883 282° West 331 381 17,800 -1,854 Descending Indianapolis Center
Sun 09:31:26 AM 37.6100 -84.6992 282° West 324 373 15,900 -1,415 Descending Indianapolis Center
Sun 09:32:28 AM 37.6294 -84.8094 283° West 322 371 14,900 -1,073 Descending Indianapolis Center
Sun 09:33:29 AM 37.6506 -84.9358 282° West 316 364 13,700 -1,463 Descending Indianapolis Center
Sun 09:34:31 AM 37.7011 -85.0219 307° West 308 354 11,900 -1,756 Descending Indianapolis Center
Sun 09:35:32 AM 37.7600 -85.1014 313° West 307 353 10,100 -927 Descending Indianapolis Center
Sun 09:36:34 AM 37.8167 -85.1778 313° West 301 346 10,000 -341 Descending Indianapolis Center
Sun 09:37:35 AM 37.8778 -85.2622 313° West 288 331 9,400 -750 Descending FAA TRACON SMA TRACON (SMA)
Sun 09:37:54 AM 37.8939 -85.2850 312° West 283 326 9,000 -1,350 Descending FAA TRACON SMA TRACON (SMA)
Sun 09:38:15 AM 37.9103 -85.3069 313° West 278 320 8,500 -1,500 Descending FAA TRACON SMA TRACON (SMA)
Sun 09:38:34 AM 37.9258 -85.3294 311° West 277 319 8,000 -1,800 Descending FAA TRACON SMA TRACON (SMA)
Sun 09:38:55 AM 37.9461 -85.3567 313° West 277 319 7,300 -1,756 Descending FAA TRACON SMA TRACON (SMA)
Sun 09:39:15 AM 37.9622 -85.3786 313° West 277 319 6,800 -1,385 Descending FAA TRACON SMA TRACON (SMA)
Sun 09:39:34 AM 37.9778 -85.4014 311° West 277 319 6,400 -1,500 Descending FAA TRACON SMA TRACON (SMA)
Sun 09:39:55 AM 37.9975 -85.4283 313° West 272 313 5,800 -1,350 Descending FAA TRACON SMA TRACON (SMA)
Sun 09:40:14 AM 38.0122 -85.4506 310° West 269 310 5,500 -1,050 Descending FAA TRACON SMA TRACON (SMA)
Sun 09:40:35 AM 38.0308 -85.4767 312° West 261 300 5,100 -1,050 Descending FAA TRACON SMA TRACON (SMA)
Sun 09:40:54 AM 38.0464 -85.4972 314° West 260 299 4,800 -923 Descending FAA TRACON SMA TRACON (SMA)
Sun 09:41:14 AM 38.0614 -85.5186 312° West 263 303 4,500 -1,024 Descending FAA TRACON SMA TRACON (SMA)
Sun 09:41:35 AM 38.0806 -85.5453 312° West 265 305 4,100 -750 Descending FAA TRACON SMA TRACON (SMA)
Sun 09:41:54 AM 38.0956 -85.5664 312° West 265 305 4,000 -150 Descending FAA TRACON SMA TRACON (SMA)
Sun 09:42:15 AM 38.1106 -85.5878 312° West 264 304 4,000  Level FAA TRACON SMA TRACON (SMA)
Sun 09:42:34 AM 38.1294 -85.6017 330° Northwest 262 302 4,000  Level FAA TRACON SMA TRACON (SMA)
Sun 09:42:55 AM 38.1553 -85.6142 339° North 258 297 4,000  Level FAA TRACON SMA TRACON (SMA)
Sun 09:43:14 AM 38.1761 -85.6239 340° North 257 296 4,000  Level FAA TRACON SMA TRACON (SMA)
Sun 09:43:34 AM 38.2006 -85.6350 340° North 246 283 4,000  Level FAA TRACON SMA TRACON (SMA)
Sun 09:43:55 AM 38.2192 -85.6442 339° North 232 267 4,000  Level FAA TRACON SMA TRACON (SMA)
Sun 09:44:14 AM 38.2372 -85.6528 339° North 225 259 4,000  Level FAA TRACON SMA TRACON (SMA)
Sun 09:44:35 AM 38.2594 -85.6639 339° North 223 257 4,000  Level FAA TRACON SMA TRACON (SMA)
Sun 09:44:54 AM 38.2764 -85.6725 338° Northwest 216 249 4,000  Level FAA TRACON SMA TRACON (SMA)
Sun 09:45:14 AM 38.2903 -85.6833 329° Northwest 205 236 4,000 -585 Level FAA TRACON SMA TRACON (SMA)
Sun 09:45:35 AM 38.2922 -85.7089 276° West 207 238 3,600 -1,500 Descending FAA TRACON SMA TRACON (SMA)
Sun 09:45:54 AM 38.2878 -85.7294 255° West 197 227 3,000 -1,650 Descending FAA TRACON SMA TRACON (SMA)
Sun 09:46:15 AM 38.2789 -85.7533 245° Southwest 201 231 2,500 -1,050 Descending FAA TRACON SMA TRACON (SMA)
Sun 09:46:34 AM 38.2653 -85.7581 195° South 190 219 2,300 -615 Descending FAA TRACON SMA TRACON (SMA)
Sun 09:46:54 AM 38.2531 -85.7550 169° South 157 181 2,100 -878 Descending FAA TRACON SMA TRACON (SMA)
Sun 09:47:15 AM 38.2394 -85.7497 163° South 132 152 1,700 -900 Descending FAA TRACON SMA TRACON (SMA)
Sun 09:47:34 AM 38.2289 -85.7453 162° South 129 148 1,500 -750 Descending FAA TRACON SMA TRACON (SMA)
Sun 09:47:55 AM 38.2175 -85.7419 167° South 133 153 1,200 -900 Descending FAA TRACON SMA TRACON (SMA)
Sun 09:48:14 AM 38.2039 -85.7369 164° South 133 153 900 -750 Descending FAA TRACON SMA TRACON (SMA)
Sun 09:48:35 AM 38.1933 -85.7331 164° South 132 152 700 -571 Descending FAA TRACON SMA TRACON (SMA)

Login

Don't have an account? Register now (free) for customized features, flight alerts, and more!